Time;durP1;ratioP1;P1;durP2;ratioP2;P2;SDS_P1;SDS_P2;PMS_P1;PMS_P2;Temp;Humidity;BMP_temperature;BMP_pressure;BME280_temperature;BME280_humidity;BME280_pressure;Samples;Min_cycle;Max_cycle;Signal;HPM_P1;HPM_P2
2022/09/05 00:02:13;;;;;;;9.52;6.03;;;17.00;99.90;;;;;;5053292;28;20284;-67
2022/09/05 00:05:01;;;;;;;7.97;5.55;;;17.00;99.90;;;;;;5055461;28;20158;-67
2022/09/05 00:07:59;;;;;;;7.93;6.38;;;17.00;99.90;;;;;;5091001;28;20704;-67
2022/09/05 00:10:33;;;;;;;7.00;5.57;;;17.00;99.90;;;;;;5094032;28;20234;-67
2022/09/05 00:13:01;;;;;;;7.18;6.47;;;17.00;99.90;;;;;;5095242;28;20237;-67
2022/09/05 00:16:04;;;;;;;7.55;6.20;;;16.90;99.90;;;;;;5095253;28;20173;-67
2022/09/05 00:18:54;;;;;;;8.95;5.75;;;16.90;99.90;;;;;;5093834;28;20267;-67
2022/09/05 00:21:52;;;;;;;8.60;6.13;;;16.80;99.90;;;;;;5095205;28;20199;-67
2022/09/05 00:24:36;;;;;;;8.85;6.50;;;16.80;99.90;;;;;;5095021;28;20196;-67
2022/09/05 00:27:12;;;;;;;7.28;6.07;;;16.80;99.90;;;;;;5089606;28;20300;-67
2022/09/05 00:29:51;;;;;;;8.40;6.78;;;16.80;99.90;;;;;;5074723;28;20231;-67
2022/09/05 00:32:54;;;;;;;8.07;6.65;;;16.70;99.90;;;;;;5074764;28;20192;-67
2022/09/05 00:35:38;;;;;;;7.40;5.85;;;16.70;99.90;;;;;;5075063;28;20185;-67
2022/09/05 00:38:22;;;;;;;7.22;6.30;;;16.70;99.90;;;;;;5093424;28;20200;-67
2022/09/05 00:41:05;;;;;;;7.85;6.57;;;16.50;99.90;;;;;;5094252;28;20668;-67
2022/09/05 00:43:38;;;;;;;7.03;6.35;;;16.50;99.90;;;;;;5095035;28;20172;-67
2022/09/05 00:46:17;;;;;;;7.70;6.90;;;16.50;99.90;;;;;;5095337;28;20162;-67
2022/09/05 00:48:43;;;;;;;6.78;6.07;;;16.50;99.90;;;;;;5094593;28;20153;-67
2022/09/05 00:51:26;;;;;;;7.60;6.10;;;16.40;99.90;;;;;;5094730;28;20169;-67
2022/09/05 00:54:01;;;;;;;9.48;5.45;;;16.30;99.90;;;;;;5094284;28;20173;-67
2022/09/05 00:56:52;;;;;;;7.05;5.82;;;16.20;99.90;;;;;;5094641;28;20255;-67
2022/09/05 00:59:36;;;;;;;7.75;6.18;;;16.20;99.90;;;;;;5056245;28;20269;-67
2022/09/05 01:02:24;;;;;;;10.57;6.15;;;16.00;99.90;;;;;;5056102;28;20190;-67
2022/09/05 01:05:11;;;;;;;9.25;6.50;;;15.90;99.90;;;;;;5056333;28;20250;-67
2022/09/05 01:07:50;;;;;;;9.63;6.38;;;15.90;99.90;;;;;;5092963;28;20197;-67
2022/09/05 01:10:36;;;;;;;7.60;6.80;;;15.90;99.90;;;;;;5094394;28;20525;-67
2022/09/05 01:13:38;;;;;;;10.13;6.75;;;15.90;99.90;;;;;;5094363;28;20160;-67
2022/09/05 01:16:41;;;;;;;8.05;6.80;;;16.00;99.90;;;;;;5094138;28;20180;-67
2022/09/05 01:19:09;;;;;;;7.70;6.93;;;16.00;99.90;;;;;;5094171;28;20184;-66
2022/09/05 01:21:48;;;;;;;9.43;6.43;;;16.00;99.90;;;;;;5094000;28;20675;-66
2022/09/05 01:24:37;;;;;;;10.10;7.70;;;16.00;99.90;;;;;;5093815;28;20199;-67
2022/09/05 01:28:00;;;;;;;8.88;7.15;;;15.90;99.90;;;;;;5089579;28;20204;-67
2022/09/05 01:30:46;;;;;;;10.02;6.80;;;15.90;99.90;;;;;;5072163;28;20590;-67
2022/09/05 01:33:53;;;;;;;11.18;6.90;;;15.90;99.90;;;;;;5072118;28;20308;-67
2022/09/05 01:36:37;;;;;;;8.95;6.63;;;15.90;99.90;;;;;;5078756;28;20192;-67
2022/09/05 01:39:29;;;;;;;9.82;7.15;;;15.80;99.90;;;;;;5092351;28;20162;-67
2022/09/05 01:42:28;;;;;;;6.95;6.05;;;15.80;99.90;;;;;;5092449;28;20661;-67
2022/09/05 01:45:29;;;;;;;6.70;5.97;;;15.70;99.90;;;;;;5092483;28;20552;-67
2022/09/05 01:48:20;;;;;;;8.93;6.55;;;15.70;99.90;;;;;;5085556;28;20205;-67
2022/09/05 01:50:56;;;;;;;9.73;6.40;;;15.60;99.90;;;;;;5093615;28;20166;-67
2022/09/05 01:53:51;;;;;;;9.30;7.53;;;15.60;99.90;;;;;;5092062;28;20535;-67
2022/09/05 01:56:45;;;;;;;8.70;6.82;;;15.60;99.90;;;;;;5093852;28;20170;-67
2022/09/05 01:59:21;;;;;;;9.15;7.30;;;15.60;99.90;;;;;;5059788;28;20182;-67
2022/09/05 02:02:37;;;;;;;8.13;6.70;;;15.60;99.90;;;;;;5054431;28;20251;-67
2022/09/05 02:05:18;;;;;;;9.70;6.82;;;15.60;99.90;;;;;;5052491;28;20549;-67
2022/09/05 02:08:06;;;;;;;7.88;6.53;;;15.50;99.90;;;;;;5051843;28;20201;-67
2022/09/05 02:10:43;;;;;;;10.20;7.65;;;15.50;99.90;;;;;;5053169;28;20650;-67
2022/09/05 02:13:09;;;;;;;10.27;7.30;;;15.50;99.90;;;;;;5053234;28;20169;-66
2022/09/05 02:15:45;;;;;;;8.82;7.43;;;15.50;99.90;;;;;;5053069;28;20173;-67
2022/09/05 02:18:27;;;;;;;8.15;7.30;;;15.50;99.90;;;;;;5053429;28;20185;-67
2022/09/05 02:21:00;;;;;;;9.25;7.20;;;15.50;99.90;;;;;;5053597;28;20193;-67
2022/09/05 02:23:52;;;;;;;10.20;8.05;;;15.50;99.90;;;;;;5051664;28;20262;-67
2022/09/05 02:26:28;;;;;;;7.03;6.28;;;15.40;99.90;;;;;;5051729;28;20171;-67
2022/09/05 02:29:00;;;;;;;9.30;6.80;;;15.30;99.90;;;;;;5071345;28;20181;-67
2022/09/05 02:31:49;;;;;;;8.02;6.95;;;15.30;99.90;;;;;;5073629;28;20681;-67
2022/09/05 02:34:34;;;;;;;8.77;6.57;;;15.30;99.90;;;;;;5073213;28;20170;-67
2022/09/05 02:37:27;;;;;;;7.75;6.95;;;15.30;99.90;;;;;;5087152;28;20193;-66
2022/09/05 02:40:16;;;;;;;10.20;7.30;;;15.20;99.90;;;;;;5091578;28;20188;-67
2022/09/05 02:43:00;;;;;;;8.43;7.30;;;15.20;99.90;;;;;;5088770;28;20216;-67
2022/09/05 02:45:43;;;;;;;8.50;7.60;;;15.30;99.90;;;;;;5093033;28;20298;-67
2022/09/05 02:48:46;;;;;;;8.43;7.60;;;15.30;99.90;;;;;;5091762;28;20253;-67
2022/09/05 02:51:18;;;;;;;11.07;7.22;;;15.20;99.90;;;;;;5092991;28;20223;-67
2022/09/05 02:53:52;;;;;;;9.05;7.00;;;15.20;99.90;;;;;;5092877;28;20184;-67
2022/09/05 02:56:28;;;;;;;10.85;7.32;;;15.20;99.90;;;;;;5093186;28;20515;-67
2022/09/05 02:59:08;;;;;;;11.43;8.55;;;15.20;99.90;;;;;;5071978;28;20182;-67
2022/09/05 03:01:37;;;;;;;9.10;7.85;;;15.10;99.90;;;;;;5072989;28;20284;-67
2022/09/05 03:04:36;;;;;;;8.35;7.20;;;15.10;99.90;;;;;;5072726;28;20150;-67
2022/09/05 03:07:37;;;;;;;9.07;7.75;;;15.10;99.90;;;;;;5089457;28;20292;-67
2022/09/05 03:10:21;;;;;;;9.20;7.50;;;15.10;99.90;;;;;;5095025;28;20177;-67
2022/09/05 03:13:18;;;;;;;9.55;7.80;;;15.10;99.90;;;;;;5096546;28;20782;-67
2022/09/05 03:16:06;;;;;;;11.35;8.18;;;15.00;99.90;;;;;;5096604;28;20163;-67
2022/09/05 03:19:17;;;;;;;10.85;8.70;;;15.00;99.90;;;;;;5096357;28;20258;-67
2022/09/05 03:22:14;;;;;;;9.60;7.82;;;15.00;99.90;;;;;;5095476;28;20673;-67
2022/09/05 03:24:42;;;;;;;10.70;8.63;;;15.00;99.90;;;;;;5095838;28;20158;-67
2022/09/05 03:27:42;;;;;;;13.88;9.43;;;15.00;99.90;;;;;;5089693;28;20255;-67
2022/09/05 03:30:16;;;;;;;11.80;9.40;;;15.00;99.90;;;;;;5075860;28;20186;-67
2022/09/05 03:33:07;;;;;;;10.63;9.30;;;15.00;99.90;;;;;;5074532;28;20182;-67
2022/09/05 03:36:10;;;;;;;10.00;8.90;;;14.90;99.90;;;;;;5076706;28;20178;-66
2022/09/05 03:39:07;;;;;;;10.30;8.88;;;14.90;99.90;;;;;;5095149;28;20197;-67
2022/09/05 03:41:54;;;;;;;11.65;8.93;;;14.80;99.90;;;;;;5096303;28;20220;-67
2022/09/05 03:44:35;;;;;;;12.15;8.95;;;14.80;99.90;;;;;;5095795;28;20241;-67
2022/09/05 03:47:43;;;;;;;10.90;8.55;;;14.80;99.90;;;;;;5096287;28;20185;-67
2022/09/05 03:50:32;;;;;;;12.20;9.98;;;14.80;99.90;;;;;;5094520;28;20251;-67
2022/09/05 03:53:17;;;;;;;11.68;8.63;;;14.80;99.90;;;;;;5095652;28;20192;-67
2022/09/05 03:55:49;;;;;;;11.32;9.35;;;14.80;99.90;;;;;;5094589;28;20169;-66
2022/09/05 03:58:52;;;;;;;12.50;10.02;;;14.80;99.90;;;;;;5081017;28;20203;-66
2022/09/05 04:01:43;;;;;;;10.43;8.88;;;14.70;99.90;;;;;;5075162;28;20197;-66
2022/09/05 04:04:36;;;;;;;13.15;9.15;;;14.70;99.90;;;;;;5075256;28;20170;-66
2022/09/05 04:07:28;;;;;;;10.30;8.27;;;14.70;99.90;;;;;;5089725;28;20200;-66
2022/09/05 04:10:01;;;;;;;10.43;9.32;;;14.70;99.90;;;;;;5089757;28;20634;-65
2022/09/05 04:12:37;;;;;;;10.25;9.15;;;14.70;99.90;;;;;;5095896;28;20244;-65
2022/09/05 04:15:37;;;;;;;11.00;9.15;;;14.70;99.90;;;;;;5095396;28;20149;-65
2022/09/05 04:18:17;;;;;;;9.95;8.85;;;14.70;99.90;;;;;;5095756;28;20250;-67
2022/09/05 04:20:51;;;;;;;10.65;9.30;;;14.70;99.90;;;;;;5093840;28;20177;-70
2022/09/05 04:23:35;;;;;;;9.85;8.85;;;14.60;99.90;;;;;;5094986;28;20160;-68
2022/09/05 04:26:05;;;;;;;11.05;9.23;;;14.60;99.90;;;;;;5095113;28;20182;-67
2022/09/05 04:28:34;;;;;;;11.63;8.82;;;14.60;99.90;;;;;;5078524;28;20654;-67
2022/09/05 04:31:09;;;;;;;12.02;9.73;;;14.60;99.90;;;;;;5074964;28;20209;-67
2022/09/05 04:34:13;;;;;;;12.82;9.25;;;14.50;99.90;;;;;;5075277;28;20162;-67
2022/09/05 04:36:40;;;;;;;9.73;8.32;;;14.50;99.90;;;;;;5086662;28;20258;-67
2022/09/05 04:39:08;;;;;;;10.13;8.00;;;14.30;99.90;;;;;;5094758;28;20577;-67
2022/09/05 04:41:41;;;;;;;11.63;8.82;;;14.30;99.90;;;;;;5095152;28;20197;-67
2022/09/05 04:44:14;;;;;;;10.30;8.38;;;14.30;99.90;;;;;;5095112;28;20215;-67
2022/09/05 04:47:02;;;;;;;9.48;7.95;;;14.10;99.90;;;;;;5093543;28;20197;-67
2022/09/05 04:49:36;;;;;;;9.35;8.35;;;14.10;99.90;;;;;;5094737;28;20204;-67
2022/09/05 04:52:40;;;;;;;11.15;7.72;;;14.10;99.90;;;;;;5094923;28;20562;-67
2022/09/05 04:55:10;;;;;;;9.88;8.13;;;14.10;99.90;;;;;;5093232;28;20173;-67
2022/09/05 04:57:49;;;;;;;8.93;7.93;;;14.10;99.90;;;;;;5085505;28;20193;-67
2022/09/05 05:00:29;;;;;;;10.77;7.60;;;14.10;99.90;;;;;;5074027;28;20184;-67
2022/09/05 05:03:19;;;;;;;9.48;8.57;;;14.00;99.90;;;;;;5074278;28;20162;-69
2022/09/05 05:05:48;;;;;;;9.50;8.50;;;14.00;99.90;;;;;;5077816;28;20197;-67
2022/09/05 05:08:17;;;;;;;10.65;9.05;;;14.00;99.90;;;;;;5094259;28;20401;-67
2022/09/05 05:11:16;;;;;;;8.73;7.72;;;14.00;99.90;;;;;;5093185;28;20173;-67
2022/09/05 05:13:49;;;;;;;11.30;8.82;;;14.00;99.90;;;;;;5093357;28;20192;-71
2022/09/05 05:16:23;;;;;;;14.10;8.90;;;14.00;99.90;;;;;;5095338;28;20202;-67
2022/09/05 05:19:17;;;;;;;13.25;8.95;;;14.00;99.90;;;;;;5095489;28;20196;-67
2022/09/05 05:21:48;;;;;;;12.10;8.25;;;14.10;99.90;;;;;;5094269;28;20292;-67
2022/09/05 05:24:18;;;;;;;10.77;8.70;;;14.10;99.90;;;;;;5094217;28;20206;-67
2022/09/05 05:27:00;;;;;;;10.90;8.90;;;14.10;99.90;;;;;;5092001;28;20272;-67
2022/09/05 05:29:51;;;;;;;10.07;8.70;;;14.20;99.90;;;;;;5073791;28;20196;-67
2022/09/05 05:32:40;;;;;;;10.35;8.40;;;14.20;99.90;;;;;;5069984;28;20193;-68
2022/09/05 05:35:24;;;;;;;11.68;8.98;;;14.20;99.90;;;;;;5072064;28;20186;-68
2022/09/05 05:38:24;;;;;;;10.35;8.73;;;14.30;99.90;;;;;;5053852;28;20197;-68
2022/09/05 05:41:02;;;;;;;11.05;8.77;;;14.30;99.90;;;;;;5052050;28;20270;-67
2022/09/05 05:43:36;;;;;;;12.50;7.75;;;14.40;99.90;;;;;;5053696;28;20212;-67
2022/09/05 05:46:03;;;;;;;11.93;8.68;;;14.50;99.90;;;;;;5053797;28;20173;-67
2022/09/05 05:48:40;;;;;;;9.88;8.23;;;14.60;99.90;;;;;;5053712;28;20254;-68
2022/09/05 05:51:35;;;;;;;11.57;8.85;;;14.70;99.90;;;;;;5053776;28;20154;-67
2022/09/05 05:54:26;;;;;;;13.77;9.02;;;14.80;99.90;;;;;;5053514;28;20502;-67
2022/09/05 05:57:26;;;;;;;11.30;8.85;;;14.90;99.90;;;;;;5056382;28;21446;-67
2022/09/05 05:59:51;;;;;;;11.80;9.57;;;15.00;99.90;;;;;;5072210;28;20272;-67
2022/09/05 06:02:38;;;;;;;13.27;9.60;;;15.00;99.90;;;;;;5073444;28;20273;-67
2022/09/05 06:05:16;;;;;;;17.42;9.80;;;15.10;99.90;;;;;;5073635;28;20627;-67
2022/09/05 06:08:01;;;;;;;12.52;9.98;;;15.10;99.90;;;;;;5053121;28;20247;-67
2022/09/05 06:11:04;;;;;;;14.20;9.70;;;15.20;99.90;;;;;;5051846;28;20178;-67
2022/09/05 06:13:59;;;;;;;15.10;10.35;;;15.30;99.90;;;;;;5051965;28;20227;-68
2022/09/05 06:16:28;;;;;;;16.42;10.50;;;15.30;99.90;;;;;;5054890;28;20194;-68
2022/09/05 06:19:21;;;;;;;10.63;9.18;;;15.40;99.90;;;;;;5053763;28;20190;-68
2022/09/05 06:22:04;;;;;;;10.60;8.77;;;15.50;99.90;;;;;;5053120;28;20194;-67
2022/09/05 06:25:17;;;;;;;9.90;8.48;;;15.60;99.90;;;;;;5052730;28;20209;-68
2022/09/05 06:28:20;;;;;;;9.73;8.50;;;15.70;99.90;;;;;;5051393;28;20218;-67
2022/09/05 06:31:00;;;;;;;12.57;8.85;;;15.80;99.90;;;;;;5052538;28;20651;-68
2022/09/05 06:33:56;;;;;;;11.88;9.02;;;15.90;99.90;;;;;;5053480;28;20158;-67
2022/09/05 06:36:48;;;;;;;10.43;8.57;;;16.10;99.90;;;;;;5069360;28;20247;-68
2022/09/05 06:39:23;;;;;;;11.35;8.43;;;16.20;99.90;;;;;;5093102;28;20161;-68
2022/09/05 06:42:33;;;;;;;7.60;6.68;;;16.40;99.90;;;;;;5095528;28;20197;-68
2022/09/05 06:45:28;;;;;;;9.00;6.97;;;16.50;99.90;;;;;;5077695;28;20185;-68
2022/09/05 06:48:19;;;;;;;8.63;7.25;;;16.70;99.90;;;;;;5079008;28;20197;-68
2022/09/05 06:51:18;;;;;;;7.95;6.28;;;16.90;99.90;;;;;;5097302;28;20175;-68
2022/09/05 06:54:19;;;;;;;7.95;6.68;;;17.00;99.90;;;;;;5096602;28;20154;-68
2022/09/05 06:56:53;;;;;;;8.40;7.10;;;17.20;99.90;;;;;;5094795;28;20199;-68
2022/09/05 06:59:40;;;;;;;7.88;6.32;;;17.40;99.90;;;;;;5076386;28;20180;-68
2022/09/05 07:02:33;;;;;;;6.55;5.85;;;17.60;99.90;;;;;;5075010;28;20248;-68
2022/09/05 07:05:39;;;;;;;11.95;8.07;;;17.70;99.90;;;;;;5076360;28;20645;-68
2022/09/05 07:08:29;;;;;;;8.90;6.50;;;17.90;99.90;;;;;;5054215;28;20210;-68
2022/09/05 07:11:01;;;;;;;9.45;6.35;;;18.10;99.90;;;;;;5056211;28;20158;-68
2022/09/05 07:14:21;;;;;;;10.68;6.45;;;18.20;99.90;;;;;;5054970;28;20185;-68
2022/09/05 07:16:58;;;;;;;10.20;5.93;;;18.30;99.90;;;;;;5037255;28;20206;-68
2022/09/05 07:19:36;;;;;;;8.05;5.50;;;18.50;99.90;;;;;;5055707;28;20324;-68
2022/09/05 07:22:14;;;;;;;8.05;5.55;;;18.60;99.90;;;;;;5054708;28;20292;-68
2022/09/05 07:24:51;;;;;;;9.50;5.63;;;18.80;99.90;;;;;;5054450;28;20253;-68
2022/09/05 07:27:28;;;;;;;7.65;5.45;;;18.90;99.90;;;;;;5062132;28;20197;-68
2022/09/05 07:29:57;;;;;;;7.85;5.93;;;19.00;99.90;;;;;;5076764;28;20182;-68
2022/09/05 07:32:23;;;;;;;8.65;6.03;;;19.10;99.90;;;;;;5076535;28;20196;-68
2022/09/05 07:34:51;;;;;;;8.20;5.50;;;19.20;99.90;;;;;;5074788;28;20181;-68
2022/09/05 07:37:25;;;;;;;10.50;5.47;;;19.30;99.90;;;;;;5092739;28;20197;-68
2022/09/05 07:40:08;;;;;;;9.35;5.25;;;19.50;99.90;;;;;;5096551;28;20189;-68
2022/09/05 07:42:41;;;;;;;6.18;4.65;;;19.60;99.90;;;;;;5097015;28;20223;-68
2022/09/05 07:45:12;;;;;;;8.32;4.63;;;19.70;99.90;;;;;;5096630;28;20154;-68
2022/09/05 07:48:07;;;;;;;9.50;5.25;;;19.80;99.90;;;;;;5095497;28;20728;-68
2022/09/05 07:50:48;;;;;;;8.32;5.30;;;19.90;99.90;;;;;;5094182;28;20165;-68
2022/09/05 07:53:16;;;;;;;8.18;4.85;;;20.10;99.90;;;;;;5095581;28;20168;-68
2022/09/05 07:55:42;;;;;;;8.93;4.72;;;20.20;99.90;;;;;;5095737;28;20158;-68
2022/09/05 07:58:13;;;;;;;7.97;4.88;;;20.30;99.90;;;;;;5080916;28;20209;-67
2022/09/05 08:00:43;;;;;;;9.15;4.30;;;20.50;99.90;;;;;;5076716;28;20177;-67
2022/09/05 08:03:13;;;;;;;8.93;4.53;;;20.60;99.90;;;;;;5075968;28;20170;-67
2022/09/05 08:05:54;;;;;;;6.90;4.68;;;20.80;99.90;;;;;;5080717;28;20594;-66
2022/09/05 08:08:52;;;;;;;6.05;3.80;;;20.90;99.90;;;;;;5096377;28;20185;-68
2022/09/05 08:11:24;;;;;;;9.15;5.20;;;21.10;99.90;;;;;;5097489;28;20197;-67
2022/09/05 08:14:05;;;;;;;7.47;4.53;;;21.30;99.90;;;;;;5095720;28;20185;-67
2022/09/05 08:16:33;;;;;;;5.10;4.20;;;21.40;99.90;;;;;;5098142;28;20679;-69
2022/09/05 08:19:34;;;;;;;7.72;4.15;;;21.50;99.90;;;;;;5097166;28;20534;-66
2022/09/05 08:22:03;;;;;;;4.82;3.60;;;21.70;99.90;;;;;;5097336;28;20199;-67
2022/09/05 08:24:45;;;;;;;6.05;3.60;;;21.80;99.90;;;;;;5096749;28;20203;-66
2022/09/05 08:27:18;;;;;;;6.38;4.13;;;22.00;99.90;;;;;;5089445;28;20204;-68
2022/09/05 08:30:00;;;;;;;5.40;3.70;;;22.10;99.90;;;;;;5059873;28;20190;-66
2022/09/05 08:32:37;;;;;;;6.55;3.90;;;22.10;99.90;;;;;;5055212;28;20639;-68
2022/09/05 08:35:15;;;;;;;6.07;3.45;;;22.30;99.90;;;;;;5054566;28;20193;-69
2022/09/05 08:37:43;;;;;;;5.82;3.80;;;22.40;99.90;;;;;;5094425;28;20196;-69
2022/09/05 08:40:34;;;;;;;4.65;3.40;;;22.50;99.90;;;;;;5094476;28;20193;-69
2022/09/05 08:43:31;;;;;;;4.82;3.33;;;22.70;99.90;;;;;;5094697;28;20193;-69
2022/09/05 08:45:59;;;;;;;4.43;3.20;;;22.80;99.90;;;;;;5094562;28;20662;-68
2022/09/05 08:48:49;;;;;;;5.30;3.50;;;22.90;99.90;;;;;;5093364;28;20232;-69
2022/09/05 08:51:20;;;;;;;4.57;3.30;;;22.90;99.90;;;;;;5094552;28;20162;-69
2022/09/05 08:53:49;;;;;;;7.80;3.20;;;23.00;99.90;;;;;;5093046;28;20180;-69
2022/09/05 08:56:36;;;;;;;4.68;2.92;;;23.20;99.90;;;;;;5094140;28;20657;-69
2022/09/05 08:59:22;;;;;;;3.53;3.10;;;23.40;99.90;;;;;;5052824;28;20189;-68
2022/09/05 09:01:54;;;;;;;3.13;2.80;;;23.70;99.90;;;;;;5052302;28;20197;-69
2022/09/05 09:04:22;;;;;;;3.60;2.63;;;24.00;99.90;;;;;;5053954;28;20646;-69
2022/09/05 09:07:09;;;;;;;2.60;2.15;;;24.20;99.90;;;;;;5079279;28;20205;-69
2022/09/05 09:09:59;;;;;;;3.80;2.40;;;24.50;99.90;;;;;;5082804;28;20597;-69
2022/09/05 09:12:47;;;;;;;3.97;2.72;;;24.80;99.90;;;;;;5093752;28;20683;-67
2022/09/05 09:15:37;;;;;;;2.47;2.28;;;25.00;99.90;;;;;;5094037;28;20646;-67
2022/09/05 09:18:18;;;;;;;2.75;2.15;;;25.20;99.90;;;;;;5092830;28;20201;-67
2022/09/05 09:20:52;;;;;;;4.05;2.42;;;25.40;99.90;;;;;;5094431;28;20164;-67
2022/09/05 09:23:33;;;;;;;3.65;2.10;;;25.30;99.90;;;;;;5093911;28;20180;-67
2022/09/05 09:26:16;;;;;;;2.78;2.55;;;25.10;99.90;;;;;;5093830;28;20161;-67
2022/09/05 09:28:51;;;;;;;2.15;2.00;;;25.10;99.90;;;;;;5080748;28;20533;-67
2022/09/05 09:31:16;;;;;;;3.13;2.33;;;24.90;99.90;;;;;;5053911;28;20166;-67
2022/09/05 09:33:49;;;;;;;3.45;2.08;;;24.70;99.90;;;;;;5053629;28;20208;-67
2022/09/05 09:36:53;;;;;;;3.78;2.20;;;24.60;99.90;;;;;;5069586;28;20235;-67
2022/09/05 09:39:49;;;;;;;2.40;2.03;;;24.50;99.90;;;;;;5093867;28;20176;-68
2022/09/05 09:42:50;;;;;;;3.85;2.03;;;25.00;99.90;;;;;;5094046;28;20192;-67
2022/09/05 09:45:41;;;;;;;2.00;1.67;;;25.50;99.90;;;;;;5081744;28;20180;-67
2022/09/05 09:48:09;;;;;;;1.95;1.67;;;26.00;99.90;;;;;;5094298;28;20199;-67
2022/09/05 09:50:59;;;;;;;2.47;2.10;;;26.30;99.90;;;;;;5092425;28;20604;-67
2022/09/05 09:54:02;;;;;;;3.30;1.88;;;26.40;99.90;;;;;;5093898;28;20162;-67
2022/09/05 09:56:46;;;;;;;1.92;1.80;;;26.50;99.90;;;;;;5092178;28;20245;-67
2022/09/05 09:59:59;;;;;;;2.15;1.95;;;26.40;99.90;;;;;;5063188;28;20616;-67
2022/09/05 10:03:07;;;;;;;1.77;1.67;;;26.40;99.90;;;;;;5072585;28;20685;-68
2022/09/05 10:05:46;;;;;;;1.92;1.80;;;26.50;99.90;;;;;;5073696;28;20303;-69
2022/09/05 10:08:58;;;;;;;2.05;1.85;;;26.60;99.90;;;;;;5090588;28;20281;-68
2022/09/05 10:11:48;;;;;;;3.83;1.50;;;26.90;99.90;;;;;;5092734;28;20180;-69
2022/09/05 10:14:51;;;;;;;2.13;1.92;;;27.00;99.90;;;;;;5094590;28;20181;-69
2022/09/05 10:17:32;;;;;;;1.80;1.70;;;27.20;99.90;;;;;;5097993;28;20200;-70
2022/09/05 10:20:04;;;;;;;2.20;2.00;;;27.30;99.90;;;;;;5097345;28;20278;-69
2022/09/05 10:22:42;;;;;;;1.80;1.70;;;27.40;99.90;;;;;;5098157;28;20210;-68
2022/09/05 10:25:21;;;;;;;1.90;1.80;;;27.40;99.90;;;;;;5096378;28;20180;-69
2022/09/05 10:28:30;;;;;;;1.75;1.52;;;27.30;99.90;;;;;;5087753;28;20201;-68
2022/09/05 10:31:19;;;;;;;2.50;2.10;;;27.00;99.90;;;;;;5077820;28;20197;-69
2022/09/05 10:34:08;;;;;;;4.47;2.30;;;26.80;99.90;;;;;;5076156;28;20181;-69
2022/09/05 10:36:36;;;;;;;3.60;2.58;;;26.50;99.90;;;;;;5088275;28;20223;-68
2022/09/05 10:39:24;;;;;;;4.35;2.40;;;26.30;99.90;;;;;;5096057;28;20195;-68
2022/09/05 10:42:13;;;;;;;2.88;2.10;;;26.20;99.90;;;;;;5098239;28;20189;-69
2022/09/05 10:44:48;;;;;;;3.45;2.20;;;26.30;99.90;;;;;;5097029;28;20173;-70
2022/09/05 10:47:37;;;;;;;2.63;2.35;;;26.60;99.90;;;;;;5097866;28;20192;-69
2022/09/05 10:50:26;;;;;;;2.83;2.20;;;26.80;99.90;;;;;;5097917;28;20188;-69
2022/09/05 10:53:02;;;;;;;2.28;2.03;;;27.10;99.90;;;;;;5097299;28;20164;-68
2022/09/05 10:55:48;;;;;;;2.72;1.95;;;27.30;99.90;;;;;;5097025;28;20167;-69
2022/09/05 10:58:45;;;;;;;2.33;2.13;;;27.50;99.90;;;;;;5081640;28;20286;-68
2022/09/05 11:01:40;;;;;;;1.85;1.75;;;27.70;99.90;;;;;;5076922;28;20232;-68
2022/09/05 11:04:27;;;;;;;3.30;1.83;;;27.80;99.90;;;;;;5076823;28;20197;-69
2022/09/05 11:06:59;;;;;;;2.05;1.85;;;27.90;99.90;;;;;;5090386;28;20604;-68
2022/09/05 11:09:38;;;;;;;1.98;1.70;;;27.80;99.90;;;;;;5096875;28;20215;-69
2022/09/05 11:12:31;;;;;;;2.55;1.83;;;27.70;99.90;;;;;;5096924;28;20526;-68
2022/09/05 11:15:01;;;;;;;4.05;1.90;;;27.50;99.90;;;;;;5095417;28;20264;-68
2022/09/05 11:17:34;;;;;;;2.40;2.00;;;27.40;99.90;;;;;;5096854;28;20289;-69
2022/09/05 11:20:28;;;;;;;3.65;2.30;;;27.30;99.90;;;;;;5096764;28;20191;-69
2022/09/05 11:23:02;;;;;;;3.28;2.17;;;27.40;99.90;;;;;;5095396;28;20192;-68
2022/09/05 11:25:30;;;;;;;2.55;2.03;;;27.30;99.90;;;;;;5095318;28;20148;-69
2022/09/05 11:28:01;;;;;;;3.20;2.03;;;27.10;99.90;;;;;;5083470;28;20205;-69
2022/09/05 11:30:33;;;;;;;3.50;2.00;;;26.90;99.90;;;;;;5076320;28;20155;-69
2022/09/05 11:33:05;;;;;;;2.55;1.95;;;26.80;99.90;;;;;;5074809;28;20181;-68
2022/09/05 11:35:37;;;;;;;2.25;1.88;;;26.60;99.90;;;;;;5077943;28;20177;-68
2022/09/05 11:38:08;;;;;;;2.15;1.95;;;26.50;99.90;;;;;;5096329;28;20216;-68
2022/09/05 11:40:48;;;;;;;2.40;2.20;;;26.40;99.90;;;;;;5094163;28;20192;-68
2022/09/05 11:43:32;;;;;;;2.08;1.98;;;26.50;99.90;;;;;;5094792;28;20196;-69
2022/09/05 11:46:29;;;;;;;2.15;2.03;;;26.80;99.90;;;;;;5096219;28;20712;-69
2022/09/05 11:49:39;;;;;;;3.33;2.15;;;26.90;99.90;;;;;;5094627;28;20173;-69
2022/09/05 11:52:56;;;;;;;2.40;2.15;;;26.70;99.90;;;;;;5095990;28;20176;-68
2022/09/05 11:55:45;;;;;;;2.40;1.83;;;26.60;99.90;;;;;;5082468;28;20189;-68
2022/09/05 11:58:29;;;;;;;3.08;2.03;;;26.80;99.90;;;;;;5080651;28;20201;-69
2022/09/05 12:01:40;;;;;;;2.25;2.00;;;27.50;99.90;;;;;;5073947;28;20272;-69
2022/09/05 12:04:28;;;;;;;3.22;2.42;;;28.10;99.90;;;;;;5073048;28;20675;-69
2022/09/05 12:07:24;;;;;;;1.90;1.80;;;28.60;99.90;;;;;;5088576;28;20208;-69
2022/09/05 12:10:05;;;;;;;2.05;1.85;;;29.10;99.90;;;;;;5095505;28;20210;-69
2022/09/05 12:12:38;;;;;;;3.28;2.10;;;29.50;99.90;;;;;;5095330;28;20202;-69
2022/09/05 12:15:22;;;;;;;2.90;2.03;;;29.80;99.90;;;;;;5095488;28;20169;-69
2022/09/05 12:18:21;;;;;;;2.05;1.83;;;30.20;99.90;;;;;;5093782;28;20223;-69
2022/09/05 12:20:59;;;;;;;2.65;1.80;;;30.60;99.90;;;;;;5095328;28;20571;-69
2022/09/05 12:23:49;;;;;;;1.90;1.80;;;31.00;99.90;;;;;;5095090;28;20351;-69
2022/09/05 12:26:30;;;;;;;4.13;1.90;;;31.00;99.90;;;;;;5094618;28;20160;-69
2022/09/05 12:29:17;;;;;;;2.15;1.83;;;30.90;99.90;;;;;;5073474;28;20664;-69
2022/09/05 12:31:49;;;;;;;2.08;1.90;;;30.50;99.90;;;;;;5074962;28;20161;-69
2022/09/05 12:34:35;;;;;;;2.08;1.92;;;30.00;99.90;;;;;;5074617;28;20548;-69
2022/09/05 12:37:03;;;;;;;2.00;1.77;;;29.80;99.90;;;;;;5088797;28;20696;-69
2022/09/05 12:39:42;;;;;;;2.92;1.80;;;29.90;99.90;;;;;;5092929;28;20565;-69
2022/09/05 12:42:39;;;;;;;3.03;1.67;;;29.80;99.90;;;;;;5094502;28;20272;-69
2022/09/05 12:45:40;;;;;;;2.15;1.98;;;30.00;99.90;;;;;;5094822;28;20669;-69
2022/09/05 12:48:28;;;;;;;2.25;1.60;;;30.60;99.90;;;;;;5094565;28;20188;-69
2022/09/05 12:51:09;;;;;;;2.15;1.70;;;30.90;99.90;;;;;;5094644;28;20165;-69
2022/09/05 12:53:50;;;;;;;2.15;1.70;;;31.00;99.90;;;;;;5095186;28;20516;-69
2022/09/05 12:56:34;;;;;;;2.40;1.77;;;31.50;99.90;;;;;;5094285;28;20733;-69
2022/09/05 12:59:03;;;;;;;2.40;1.77;;;31.80;99.90;;;;;;5054059;28;20179;-69
2022/09/05 13:01:30;;;;;;;1.70;1.60;;;32.10;99.90;;;;;;5054065;28;20247;-69
2022/09/05 13:03:58;;;;;;;2.58;1.45;;;32.30;99.90;;;;;;5054189;28;20175;-69
2022/09/05 13:06:29;;;;;;;1.88;1.77;;;32.50;99.90;;;;;;5071181;28;20220;-69
2022/09/05 13:09:15;;;;;;;5.22;1.85;;;32.70;99.90;;;;;;5094711;28;20150;-69
2022/09/05 13:12:19;;;;;;;2.35;1.40;;;32.70;99.90;;;;;;5094215;28;20227;-69
2022/09/05 13:15:26;;;;;;;2.47;1.60;;;32.80;99.90;;;;;;5093917;28;20196;-69
2022/09/05 13:18:09;;;;;;;1.75;1.65;;;33.10;99.90;;;;;;5092446;28;20251;-69
2022/09/05 13:20:50;;;;;;;5.22;1.75;;;33.00;99.90;;;;;;5091765;28;20366;-69
2022/09/05 13:23:31;;;;;;;3.05;1.60;;;32.90;99.90;;;;;;5093001;28;20226;-69
2022/09/05 13:26:04;;;;;;;2.28;1.50;;;32.80;99.90;;;;;;5094093;28;20218;-69
2022/09/05 13:28:57;;;;;;;1.88;1.58;;;32.90;99.90;;;;;;5078302;28;20178;-69
2022/09/05 13:31:41;;;;;;;1.65;1.55;;;33.20;99.90;;;;;;5072140;28;20251;-70
2022/09/05 13:34:24;;;;;;;3.50;1.83;;;33.40;99.90;;;;;;5052578;28;20209;-69
2022/09/05 13:37:11;;;;;;;3.42;1.45;;;33.40;99.90;;;;;;5079622;28;20569;-69
2022/09/05 13:40:24;;;;;;;2.25;1.58;;;33.60;99.90;;;;;;5092486;28;20274;-70
2022/09/05 13:42:59;;;;;;;3.13;1.70;;;33.60;99.90;;;;;;5093241;28;20209;-70
2022/09/05 13:45:25;;;;;;;2.30;1.48;;;33.60;99.90;;;;;;5093679;28;20164;-70
2022/09/05 13:48:33;;;;;;;2.08;1.58;;;33.60;99.90;;;;;;5093614;28;20185;-70
2022/09/05 13:51:26;;;;;;;3.30;1.80;;;33.40;99.90;;;;;;5082665;28;20668;-69
2022/09/05 13:54:28;;;;;;;3.00;1.55;;;32.90;99.90;;;;;;5093595;28;20197;-69
2022/09/05 13:57:18;;;;;;;2.50;1.55;;;32.70;99.90;;;;;;5090104;28;20224;-69
2022/09/05 14:00:06;;;;;;;2.90;1.60;;;32.80;99.90;;;;;;5073942;28;20161;-69
2022/09/05 14:02:47;;;;;;;2.50;1.40;;;32.90;99.90;;;;;;5073156;28;20250;-70
2022/09/05 14:05:52;;;;;;;4.15;1.35;;;33.00;99.90;;;;;;5073533;28;20172;-69
2022/09/05 14:08:53;;;;;;;3.05;1.80;;;32.80;99.90;;;;;;5053221;28;20190;-69
2022/09/05 14:11:37;;;;;;;5.30;1.80;;;32.50;99.90;;;;;;5050603;28;20232;-69
2022/09/05 14:14:09;;;;;;;4.07;1.85;;;31.80;99.90;;;;;;5052906;28;20209;-69